createdAt,value
2018-03-03T00:00:12.660Z,82.17
2018-03-03T00:01:12.687Z,81.95
2018-03-03T00:02:12.671Z,81.84
2018-03-03T00:03:12.674Z,81.89
2018-03-03T00:04:12.671Z,82.65
2018-03-03T00:05:12.677Z,82.38
2018-03-03T00:06:12.717Z,82.55
2018-03-03T00:07:12.704Z,82.4
2018-03-03T00:08:12.691Z,81.75
2018-03-03T00:09:12.715Z,82.85
2018-03-03T00:10:12.696Z,82.29
2018-03-03T00:11:12.708Z,82.89
2018-03-03T00:12:12.745Z,82.48
2018-03-03T00:13:12.713Z,81.56
2018-03-03T00:14:12.715Z,82.04
2018-03-03T00:15:12.719Z,83.16
2018-03-03T00:16:12.907Z,81.99
2018-03-03T00:17:12.757Z,82.17
2018-03-03T00:18:12.737Z,82.31
2018-03-03T00:19:12.735Z,82.94
2018-03-03T00:20:12.741Z,82.92
2018-03-03T00:21:12.768Z,83.09
2018-03-03T00:22:12.774Z,83.18
2018-03-03T00:23:12.752Z,83.09
2018-03-03T00:24:12.760Z,82.85
2018-03-03T00:25:12.757Z,83.16
2018-03-03T00:26:12.758Z,82.77
2018-03-03T00:27:12.771Z,83.41
2018-03-03T00:28:12.751Z,83.22
2018-03-03T00:29:12.753Z,82.61
2018-03-03T00:30:12.763Z,82.73
2018-03-03T00:31:12.771Z,82.58
2018-03-03T00:32:12.806Z,82.86
2018-03-03T00:33:12.780Z,83.23
2018-03-03T00:34:12.773Z,83.06
2018-03-03T00:35:12.770Z,82.7
2018-03-03T00:36:12.773Z,83.1
2018-03-03T00:37:12.785Z,83.13
2018-03-03T00:38:12.782Z,83.38
2018-03-03T00:39:12.780Z,83.19
2018-03-03T00:40:12.779Z,83.43
2018-03-03T00:41:12.800Z,83.08
2018-03-03T00:42:12.812Z,82.11
2018-03-03T00:43:12.834Z,82.63
2018-03-03T00:44:12.831Z,83.29
2018-03-03T00:45:12.885Z,83.36
2018-03-03T00:46:12.819Z,83.5
2018-03-03T00:47:12.825Z,83.04
2018-03-03T00:48:12.831Z,82.76
2018-03-03T00:49:12.830Z,82.89
2018-03-03T00:50:12.853Z,82.82
2018-03-03T00:51:12.829Z,82.94
2018-03-03T00:52:12.848Z,83.88
2018-03-03T00:53:12.927Z,83.49
2018-03-03T00:54:12.850Z,83.36
2018-03-03T00:55:12.864Z,83.18
2018-03-03T00:56:12.849Z,83.33
2018-03-03T00:57:12.879Z,83.53
2018-03-03T00:58:12.847Z,83.47
2018-03-03T00:59:12.865Z,83.1
2018-03-03T01:00:13.142Z,82.91
2018-03-03T01:01:12.866Z,83.2
2018-03-03T01:02:12.907Z,82.93
2018-03-03T01:03:12.888Z,83.42
2018-03-03T01:04:12.881Z,83.19
2018-03-03T01:05:12.904Z,83.16
2018-03-03T01:06:12.881Z,83.36
2018-03-03T01:07:12.920Z,83.55
2018-03-03T01:08:12.893Z,83.85
2018-03-03T01:09:12.900Z,83.71
2018-03-03T01:10:12.907Z,83.43
2018-03-03T01:11:12.930Z,83.21
2018-03-03T01:12:12.905Z,84.07
2018-03-03T01:13:12.914Z,83.75
2018-03-03T01:14:12.917Z,84.03
2018-03-03T01:15:12.960Z,83.77
2018-03-03T01:16:12.927Z,83.87
2018-03-03T01:17:12.934Z,83.36
2018-03-03T01:18:12.939Z,82.95
2018-03-03T01:19:12.925Z,83.32
2018-03-03T01:20:12.924Z,83.34
2018-03-03T01:21:12.927Z,83.09
2018-03-03T01:23:12.948Z,83.38
2018-03-03T01:24:12.933Z,83.62
2018-03-03T01:25:12.937Z,83.79
2018-03-03T01:26:12.947Z,83.34
2018-03-03T01:27:12.956Z,83.39
2018-03-03T01:28:12.956Z,83.34
2018-03-03T01:29:12.948Z,82.82
2018-03-03T01:30:13.005Z,83.08
2018-03-03T01:31:12.997Z,82.84
2018-03-03T01:32:13.014Z,82.69
2018-03-03T01:33:12.986Z,83.1
2018-03-03T01:34:12.969Z,83.59
2018-03-03T01:35:12.973Z,83.19
2018-03-03T01:36:12.972Z,83.9
2018-03-03T01:37:12.995Z,82.83
2018-03-03T01:38:13.009Z,82.69
2018-03-03T01:40:13.063Z,82.71
2018-03-03T01:41:12.998Z,83.3
2018-03-03T01:42:13.001Z,83.9
2018-03-03T01:43:13.008Z,83.37
2018-03-03T01:44:13.051Z,83.1
2018-03-03T01:45:13.008Z,83.35
2018-03-03T01:46:13.011Z,83.13
2018-03-03T01:47:13.020Z,83.55
2018-03-03T01:48:13.022Z,83.36
2018-03-03T01:49:13.016Z,83.83
2018-03-03T01:50:13.014Z,83.13
2018-03-03T01:51:13.024Z,83.28
2018-03-03T01:52:13.019Z,83.45
2018-03-03T01:53:13.030Z,83.44
2018-03-03T01:54:13.058Z,83.34
2018-03-03T01:55:13.034Z,83.75
2018-03-03T01:56:13.043Z,83.65
2018-03-03T01:57:13.050Z,83.99
2018-03-03T01:58:13.049Z,83.29
2018-03-03T01:59:13.075Z,83.56
2018-03-03T02:00:13.047Z,83.55
2018-03-03T02:01:13.044Z,83.56
2018-03-03T02:02:13.058Z,83.84
2018-03-03T02:03:13.055Z,83.39
2018-03-03T02:04:13.071Z,83.84
2018-03-03T02:05:13.080Z,83.73
2018-03-03T02:06:13.048Z,83.79
2018-03-03T02:07:13.060Z,83.95
2018-03-03T02:08:13.071Z,83.68
2018-03-03T02:09:13.079Z,82.62
2018-03-03T02:10:13.068Z,82.24
2018-03-03T02:11:13.076Z,83.69
2018-03-03T02:12:13.084Z,82.47
2018-03-03T02:13:13.094Z,83.13
2018-03-03T02:14:13.097Z,83.27
2018-03-03T02:15:13.100Z,83.32
2018-03-03T02:16:13.094Z,82.97
2018-03-03T02:17:13.112Z,83.89
2018-03-03T02:18:13.107Z,83.48
2018-03-03T02:19:13.099Z,83.22
2018-03-03T02:20:13.104Z,83.75
2018-03-03T02:21:13.123Z,82.65
2018-03-03T02:22:13.115Z,83.77
2018-03-03T02:23:13.106Z,82.7
2018-03-03T02:24:13.130Z,83.79
2018-03-03T02:26:19.407Z,83.37
2018-03-03T02:27:13.138Z,82.98
2018-03-03T02:28:13.130Z,82.52
2018-03-03T02:29:13.134Z,82.43
2018-03-03T02:30:13.149Z,82
2018-03-03T02:32:19.306Z,84.11
2018-03-03T02:33:13.174Z,83.65
2018-03-03T02:34:13.195Z,82.96
2018-03-03T02:35:13.146Z,83.66
2018-03-03T02:36:13.153Z,83.5
2018-03-03T02:37:13.177Z,83.8
2018-03-03T02:38:13.219Z,84.2
2018-03-03T02:39:13.184Z,83.97
2018-03-03T02:40:13.170Z,83.41
2018-03-03T02:41:13.166Z,83.19
2018-03-03T02:42:13.211Z,83.04
2018-03-03T02:43:13.181Z,83.07
2018-03-03T02:44:13.172Z,82.96
2018-03-03T02:45:13.166Z,83.88
2018-03-03T02:46:13.249Z,83.41
2018-03-03T02:47:13.465Z,83.53
2018-03-03T02:48:13.183Z,83.66
2018-03-03T02:49:20.163Z,84.1
2018-03-03T02:50:13.181Z,84.53
2018-03-03T02:51:13.176Z,84.96
2018-03-03T02:52:13.209Z,84.65
2018-03-03T02:53:13.192Z,84.28
2018-03-03T02:54:13.266Z,83.77
2018-03-03T02:55:13.188Z,83.11
2018-03-03T02:56:13.188Z,84.59
2018-03-03T02:57:13.195Z,84.86
2018-03-03T02:58:13.488Z,85.16
2018-03-03T02:59:13.211Z,85.28
2018-03-03T03:00:13.214Z,85.65
2018-03-03T03:01:13.221Z,85.54
2018-03-03T03:02:13.219Z,85.21
2018-03-03T03:03:13.235Z,85.54
2018-03-03T03:04:13.235Z,85.74
2018-03-03T03:05:13.221Z,86.06
2018-03-03T03:06:13.225Z,86.7
2018-03-03T03:07:13.224Z,86.23
2018-03-03T03:08:13.235Z,85.71
2018-03-03T03:09:13.225Z,86.05
2018-03-03T03:10:13.264Z,86.5
2018-03-03T03:11:13.234Z,86.86
2018-03-03T03:12:13.242Z,86.97
2018-03-03T03:13:13.237Z,86.95
2018-03-03T03:14:13.257Z,86.91
2018-03-03T03:15:13.252Z,86.68
2018-03-03T03:16:13.247Z,86.69
2018-03-03T03:17:13.255Z,86.91
2018-03-03T03:18:13.257Z,86.58
2018-03-03T03:19:13.297Z,86.02
2018-03-03T03:20:13.257Z,85.07
2018-03-03T03:21:13.259Z,86.84
2018-03-03T03:22:13.261Z,87.2
2018-03-03T03:23:13.269Z,87.21
2018-03-03T03:24:13.300Z,87.26
2018-03-03T03:25:13.261Z,87.48
2018-03-03T03:26:13.284Z,87.74
2018-03-03T03:27:13.276Z,87.67
2018-03-03T03:29:13.427Z,87.02
2018-03-03T03:30:13.296Z,87.03
2018-03-03T03:31:13.320Z,86.46
2018-03-03T03:32:13.300Z,86.6
2018-03-03T03:33:13.305Z,86.44
2018-03-03T03:34:13.301Z,86.47
2018-03-03T03:35:13.307Z,86.35
2018-03-03T03:36:13.342Z,86.12
2018-03-03T03:37:13.313Z,85.42
2018-03-03T03:38:13.329Z,85.31
2018-03-03T03:39:13.325Z,84.99
2018-03-03T03:40:13.346Z,85.15
2018-03-03T03:41:13.360Z,85.47
2018-03-03T03:42:13.381Z,85.33
2018-03-03T03:43:13.347Z,85.96
2018-03-03T03:44:13.352Z,86.56
2018-03-03T03:45:13.344Z,85.69
2018-03-03T03:46:13.405Z,85.05
2018-03-03T03:47:13.376Z,85.08
2018-03-03T03:48:13.364Z,86.3
2018-03-03T03:49:13.355Z,86.71
2018-03-03T03:50:13.370Z,86.92
2018-03-03T03:51:13.360Z,86.47
2018-03-03T03:52:13.367Z,86.89
2018-03-03T03:53:13.382Z,86.66
2018-03-03T03:54:13.376Z,87.12
2018-03-03T03:55:13.518Z,86.86
2018-03-03T03:56:13.385Z,86.78
2018-03-03T03:57:13.381Z,86.66
2018-03-03T03:58:13.412Z,86
2018-03-03T03:59:13.376Z,86.33
2018-03-03T04:00:13.376Z,85.72
2018-03-03T04:01:13.392Z,85.72
2018-03-03T04:02:13.386Z,85.85
2018-03-03T04:03:13.394Z,85.62
2018-03-03T04:04:13.565Z,85.65
2018-03-03T04:05:13.405Z,85.69
2018-03-03T04:06:13.410Z,85.67
2018-03-03T04:07:13.427Z,85.79
2018-03-03T04:08:13.413Z,86.07
2018-03-03T04:09:13.439Z,85.32
2018-03-03T04:10:13.423Z,86.21
2018-03-03T04:11:13.431Z,86.08
2018-03-03T04:12:13.418Z,86.58
2018-03-03T04:13:13.430Z,86.48
2018-03-03T04:14:13.439Z,86.55
2018-03-03T04:15:13.445Z,86.59
2018-03-03T04:16:13.445Z,86.18
2018-03-03T04:17:13.460Z,86.09
2018-03-03T04:18:13.465Z,86.31
2018-03-03T04:19:13.457Z,86.49
2018-03-03T04:20:13.462Z,86.47
2018-03-03T04:21:13.486Z,86.86
2018-03-03T04:22:13.465Z,86.62
2018-03-03T04:23:13.489Z,86.49
2018-03-03T04:24:13.497Z,86.48
2018-03-03T04:25:13.480Z,86.47
2018-03-03T04:26:13.475Z,86.95
2018-03-03T04:27:13.490Z,86.42
2018-03-03T04:28:13.514Z,87.02
2018-03-03T04:29:13.506Z,86.54
2018-03-03T04:30:13.490Z,86.94
2018-03-03T04:31:13.486Z,87.16
2018-03-03T04:32:13.502Z,87.35
2018-03-03T04:33:13.489Z,87.36
2018-03-03T04:34:13.545Z,87.37
2018-03-03T04:35:13.523Z,86.8
2018-03-03T04:36:13.510Z,87.24
2018-03-03T04:37:13.517Z,87.33
2018-03-03T04:38:13.523Z,87.26
2018-03-03T04:39:13.546Z,87.34
2018-03-03T04:40:13.524Z,87.11
2018-03-03T04:41:13.545Z,86.35
2018-03-03T04:42:13.538Z,86.07
2018-03-03T04:44:13.593Z,86.52
2018-03-03T04:45:13.552Z,86.41
2018-03-03T04:46:13.562Z,86.73
2018-03-03T04:47:13.556Z,86.73
2018-03-03T04:48:14.053Z,87.08
2018-03-03T04:49:13.750Z,87.66
2018-03-03T04:50:13.564Z,87.99
2018-03-03T04:51:13.577Z,87.7
2018-03-03T04:52:13.587Z,87.43
2018-03-03T04:53:13.581Z,87.3
2018-03-03T04:54:13.595Z,86.37
2018-03-03T04:55:13.569Z,87.17
2018-03-03T04:56:13.576Z,87.52
2018-03-03T04:57:13.588Z,87.98
2018-03-03T04:58:13.589Z,87.81
2018-03-03T04:59:13.582Z,87.61
2018-03-03T05:00:13.587Z,87.37
2018-03-03T05:01:13.666Z,87.41
2018-03-03T05:02:13.645Z,87.24
2018-03-03T05:03:13.587Z,87.63
2018-03-03T05:04:13.594Z,87.67
2018-03-03T05:05:13.595Z,87.85
2018-03-03T05:06:13.603Z,88.04
2018-03-03T05:07:13.598Z,87.93
2018-03-03T05:08:13.605Z,88.11
2018-03-03T05:09:13.600Z,88.34
2018-03-03T05:10:13.595Z,88.04
2018-03-03T05:12:13.751Z,87.62
2018-03-03T05:13:13.605Z,87.83
2018-03-03T05:14:13.862Z,87.9
2018-03-03T05:15:13.610Z,88.01
2018-03-03T05:16:13.608Z,88.32
2018-03-03T05:17:13.620Z,88.32
2018-03-03T05:18:14.018Z,88.45
2018-03-03T05:19:13.630Z,88.34
2018-03-03T05:20:13.637Z,88.48
2018-03-03T05:21:13.646Z,88.08
2018-03-03T05:22:13.652Z,87.7
2018-03-03T05:23:13.639Z,87.95
2018-03-03T05:24:13.679Z,87.57
2018-03-03T05:25:13.668Z,87.99
2018-03-03T05:26:13.670Z,87.95
2018-03-03T05:27:13.669Z,88.08
2018-03-03T05:28:13.665Z,87.98
2018-03-03T05:29:13.675Z,87.7
2018-03-03T05:30:13.685Z,87.29
2018-03-03T05:31:13.706Z,87.65
2018-03-03T05:32:13.706Z,87.75
2018-03-03T05:33:13.711Z,87.57
2018-03-03T05:34:13.702Z,87.95
2018-03-03T05:35:13.705Z,88.11
2018-03-03T05:36:13.720Z,88.36
2018-03-03T05:37:13.715Z,88.5
2018-03-03T05:38:13.709Z,88.55
2018-03-03T05:39:13.715Z,88.15
2018-03-03T05:40:13.716Z,88.12
2018-03-03T05:41:13.702Z,88
2018-03-03T05:42:13.752Z,87.82
2018-03-03T05:43:13.722Z,87.61
2018-03-03T05:44:13.715Z,88.23
2018-03-03T05:45:13.723Z,88.05
2018-03-03T05:46:13.721Z,88.09
2018-03-03T05:47:13.746Z,88.12
2018-03-03T05:48:13.738Z,88.3
2018-03-03T05:49:13.724Z,88.14
2018-03-03T05:50:13.745Z,87.89
2018-03-03T05:51:13.738Z,88.16
2018-03-03T05:52:13.764Z,88.05
2018-03-03T05:53:13.741Z,88.05
2018-03-03T05:54:13.743Z,88.38
2018-03-03T05:55:13.745Z,88.42
2018-03-03T05:56:13.749Z,88.08
2018-03-03T05:57:13.771Z,88.31
2018-03-03T05:58:13.771Z,88.32
2018-03-03T05:59:13.933Z,88.07
2018-03-03T06:00:13.754Z,87.58
2018-03-03T06:01:13.755Z,87.7
2018-03-03T06:02:13.742Z,87.77
2018-03-03T06:03:13.767Z,86.81
2018-03-03T06:04:13.756Z,86.72
2018-03-03T06:05:13.772Z,87.41
2018-03-03T06:06:13.776Z,87.47
2018-03-03T06:07:13.809Z,87.23
2018-03-03T06:08:13.789Z,87.7
2018-03-03T06:09:13.789Z,87.51
2018-03-03T06:10:13.797Z,87.34
2018-03-03T06:11:13.800Z,87.4
2018-03-03T06:12:13.820Z,87.61
2018-03-03T06:13:13.794Z,87.7
2018-03-03T06:14:13.938Z,87.97
2018-03-03T06:15:13.807Z,88.36
2018-03-03T06:16:13.802Z,87.87
2018-03-03T06:17:13.798Z,87.37
2018-03-03T06:18:13.811Z,88.1
2018-03-03T06:19:13.823Z,88.32
2018-03-03T06:20:13.818Z,88.49
2018-03-03T06:21:13.840Z,88.54
2018-03-03T06:22:13.825Z,88.5
2018-03-03T06:23:13.850Z,88.78
2018-03-03T06:24:13.820Z,88.78
2018-03-03T06:25:13.846Z,88.76
2018-03-03T06:26:13.839Z,88.7
2018-03-03T06:27:13.830Z,88.86
2018-03-03T06:28:13.852Z,88.92
2018-03-03T06:29:13.859Z,89.54
2018-03-03T06:30:13.917Z,89.3
2018-03-03T06:31:13.836Z,89.36
2018-03-03T06:32:13.847Z,89.53
2018-03-03T06:33:13.854Z,89.54
2018-03-03T06:34:13.890Z,89.09
2018-03-03T06:35:13.860Z,89.16
2018-03-03T06:36:13.874Z,89.06
2018-03-03T06:37:13.919Z,89.2
2018-03-03T06:38:13.875Z,89.58
2018-03-03T06:39:13.889Z,89.45
2018-03-03T06:40:13.915Z,89.68
2018-03-03T06:41:13.896Z,89.63
2018-03-03T06:42:13.884Z,89.81
2018-03-03T06:44:20.121Z,89.64
2018-03-03T06:45:13.896Z,89.75
2018-03-03T06:46:14.090Z,89.33
2018-03-03T06:47:13.910Z,89.39
2018-03-03T06:48:13.899Z,89.24
2018-03-03T06:49:13.908Z,89.13
2018-03-03T06:50:13.927Z,89.1
2018-03-03T06:51:13.978Z,89.26
2018-03-03T06:52:13.910Z,89.38
2018-03-03T06:53:13.916Z,89.48
2018-03-03T06:54:13.916Z,89.35
2018-03-03T06:55:13.911Z,88.87
2018-03-03T06:56:13.951Z,88.9
2018-03-03T06:57:13.940Z,88.82
2018-03-03T06:58:13.922Z,88.91
2018-03-03T06:59:13.925Z,88.96
2018-03-03T07:00:13.988Z,89.31
2018-03-03T07:01:13.943Z,89.44
2018-03-03T07:02:13.959Z,89.22
2018-03-03T07:03:13.964Z,88.83
2018-03-03T07:04:13.946Z,88.71
2018-03-03T07:05:13.932Z,88.79
2018-03-03T07:06:13.938Z,88.84
2018-03-03T07:07:13.938Z,88.83
2018-03-03T07:08:13.953Z,88.6
2018-03-03T07:09:13.952Z,88.62
2018-03-03T07:10:14.476Z,88.02
2018-03-03T07:11:13.970Z,88.61
2018-03-03T07:12:13.971Z,88.45
2018-03-03T07:13:13.995Z,88.11
2018-03-03T07:14:13.984Z,88.08
2018-03-03T07:15:13.979Z,87.44
2018-03-03T07:16:13.982Z,87.96
2018-03-03T07:17:14.027Z,88.25
2018-03-03T07:18:13.999Z,88.15
2018-03-03T07:19:14.006Z,88.39
2018-03-03T07:20:14.114Z,88.14
2018-03-03T07:21:14.084Z,87.65
2018-03-03T07:22:14.044Z,88.02
2018-03-03T07:23:14.051Z,88.13
2018-03-03T07:24:14.033Z,87.98
2018-03-03T07:25:14.063Z,87.49
2018-03-03T07:26:14.012Z,86.85
2018-03-03T07:27:14.023Z,86.98
2018-03-03T07:28:14.021Z,87.19
2018-03-03T07:29:14.036Z,87.45
2018-03-03T07:30:14.032Z,87.84
2018-03-03T07:31:14.040Z,87.73
2018-03-03T07:32:14.038Z,87.47
2018-03-03T07:33:14.050Z,87.3
2018-03-03T07:34:14.056Z,87.31
2018-03-03T07:35:14.162Z,87.37
2018-03-03T07:36:14.052Z,87.58
2018-03-03T07:37:14.057Z,87.2
2018-03-03T07:38:14.067Z,87.29
2018-03-03T07:39:14.075Z,87.43
2018-03-03T07:40:14.065Z,87.31
2018-03-03T07:41:14.063Z,87.04
2018-03-03T07:42:14.077Z,87.02
2018-03-03T07:43:14.128Z,87.34
2018-03-03T07:44:14.072Z,87.09
2018-03-03T07:45:14.096Z,86.97
2018-03-03T07:46:14.098Z,86.92
2018-03-03T07:47:14.088Z,87.01
2018-03-03T07:48:14.094Z,86.18
2018-03-03T07:49:14.106Z,85.99
2018-03-03T07:50:14.106Z,85.69
2018-03-03T07:51:14.115Z,86.73
2018-03-03T07:52:14.246Z,87.05
2018-03-03T07:53:14.129Z,86.72
2018-03-03T07:54:14.129Z,86.63
2018-03-03T07:55:14.180Z,86.59
2018-03-03T07:56:14.127Z,86.34
2018-03-03T07:57:14.143Z,85.51
2018-03-03T07:58:14.129Z,85.24
2018-03-03T07:59:14.148Z,85.72
2018-03-03T08:00:14.216Z,85.22
2018-03-03T08:01:14.163Z,86.34
2018-03-03T08:02:14.157Z,86.65
2018-03-03T08:03:14.161Z,86.12
2018-03-03T08:04:14.168Z,85.71
2018-03-03T08:05:14.194Z,85.67
2018-03-03T08:06:14.165Z,86.22
2018-03-03T08:07:14.180Z,86.76
2018-03-03T08:08:14.198Z,86.41
2018-03-03T08:09:14.189Z,86.02
2018-03-03T08:10:14.180Z,86.43
2018-03-03T08:11:14.200Z,86.51
2018-03-03T08:12:14.196Z,86.53
2018-03-03T08:13:14.192Z,87.07
2018-03-03T08:14:14.188Z,86.98
2018-03-03T08:15:14.197Z,87.19
2018-03-03T08:16:14.238Z,86.6
2018-03-03T08:17:14.205Z,86.91
2018-03-03T08:19:14.224Z,86.98
2018-03-03T08:20:14.220Z,87.2
2018-03-03T08:21:14.234Z,86.68
2018-03-03T08:22:14.235Z,87.13
2018-03-03T08:23:14.228Z,87.19
2018-03-03T08:24:14.235Z,86.98
2018-03-03T08:25:14.258Z,86.89
2018-03-03T08:26:14.264Z,86.5
2018-03-03T08:27:14.285Z,86.44
2018-03-03T08:28:14.241Z,86.32
2018-03-03T08:29:14.255Z,86.08
2018-03-03T08:30:14.259Z,86.69
2018-03-03T08:31:14.246Z,86.48
2018-03-03T08:32:14.271Z,86.82
2018-03-03T08:33:14.261Z,86.74
2018-03-03T08:34:14.257Z,86.57
2018-03-03T08:35:14.277Z,87.17
2018-03-03T08:36:14.279Z,86.61
2018-03-03T08:37:14.264Z,87.46
2018-03-03T08:38:14.267Z,86.67
2018-03-03T08:39:14.265Z,86.57
2018-03-03T08:40:14.268Z,86.63
2018-03-03T08:41:14.260Z,86.82
2018-03-03T08:42:14.287Z,86.58
2018-03-03T08:43:14.274Z,86.4
2018-03-03T08:46:14.364Z,86.53
2018-03-03T08:47:14.285Z,86.35
2018-03-03T08:48:14.298Z,86.9
2018-03-03T08:49:14.593Z,85.85
2018-03-03T08:51:20.689Z,86.48
2018-03-03T08:52:14.360Z,86.35
2018-03-03T08:53:14.326Z,86.41
2018-03-03T08:54:14.335Z,86.29
2018-03-03T08:55:14.308Z,86.43
2018-03-03T08:56:14.322Z,86.27
2018-03-03T08:57:14.465Z,85.82
2018-03-03T08:58:14.337Z,85.82
2018-03-03T08:59:14.358Z,85.99
2018-03-03T09:00:14.324Z,86.44
2018-03-03T09:01:14.382Z,86.29
2018-03-03T09:02:14.363Z,86.46
2018-03-03T09:03:14.336Z,86.46
2018-03-03T09:04:14.354Z,86.33
2018-03-03T09:05:14.400Z,86.86
2018-03-03T09:06:14.457Z,86.47
2018-03-03T09:07:14.350Z,86.39
2018-03-03T09:08:14.352Z,86.77
2018-03-03T09:09:14.350Z,86.42
2018-03-03T09:10:14.357Z,86.15
2018-03-03T09:11:14.370Z,86.47
2018-03-03T09:12:14.386Z,86.8
2018-03-03T09:13:14.361Z,86.56
2018-03-03T09:14:14.378Z,86.59
2018-03-03T09:15:14.373Z,86.44
2018-03-03T09:16:14.422Z,86.78
2018-03-03T09:17:14.382Z,86.73
2018-03-03T09:18:14.402Z,86.44
2018-03-03T09:19:14.396Z,86.29
2018-03-03T09:20:14.418Z,85.96
2018-03-03T09:21:14.419Z,85.51
2018-03-03T09:22:14.421Z,86.1
2018-03-03T09:23:14.414Z,85.87
2018-03-03T09:24:14.449Z,85.85
2018-03-03T09:25:14.460Z,85.88
2018-03-03T09:26:14.427Z,85.77
2018-03-03T09:27:14.423Z,85.59
2018-03-03T09:28:14.436Z,86.14
2018-03-03T09:29:14.415Z,85.97
2018-03-03T09:30:14.431Z,85.78
2018-03-03T09:31:14.420Z,85.33
2018-03-03T09:32:14.450Z,86.16
2018-03-03T09:33:14.424Z,85.82
2018-03-03T09:34:14.434Z,85.96
2018-03-03T09:35:14.465Z,85.81
2018-03-03T09:36:15.218Z,85.77
2018-03-03T09:37:14.434Z,85.16
2018-03-03T09:38:14.467Z,85.3
2018-03-03T09:39:14.482Z,85.07
2018-03-03T09:40:14.482Z,85.26
2018-03-03T09:41:14.454Z,85
2018-03-03T09:42:14.470Z,85.01
2018-03-03T09:43:14.453Z,84.81
2018-03-03T09:44:14.576Z,85.31
2018-03-03T09:45:14.484Z,84.95
2018-03-03T09:46:14.622Z,85.25
2018-03-03T09:47:14.530Z,84.71
2018-03-03T09:48:14.491Z,83.92
2018-03-03T09:49:14.511Z,84.25
2018-03-03T09:50:14.546Z,84.22
2018-03-03T09:51:14.487Z,84.26
2018-03-03T09:52:14.494Z,83.9
2018-03-03T09:53:14.722Z,83.43
2018-03-03T09:54:14.493Z,83.67
2018-03-03T09:55:14.511Z,83.29
2018-03-03T09:56:14.530Z,82.78
2018-03-03T09:57:14.511Z,83.29
2018-03-03T09:58:14.517Z,82.74
2018-03-03T09:59:14.511Z,82.41
2018-03-03T10:00:14.515Z,82.7
2018-03-03T10:01:14.522Z,82.9
2018-03-03T10:02:14.560Z,82.97
2018-03-03T10:03:14.530Z,81.69
2018-03-03T10:04:14.536Z,81.79
2018-03-03T10:05:14.536Z,82.32
2018-03-03T10:06:14.544Z,82.2
2018-03-03T10:07:14.562Z,81.33
2018-03-03T10:08:14.556Z,81.82
2018-03-03T10:09:14.554Z,82.57
2018-03-03T10:10:14.552Z,81.77
2018-03-03T10:11:14.558Z,82.07
2018-03-03T10:12:14.570Z,81.79
2018-03-03T10:13:14.554Z,82.34
2018-03-03T10:14:14.558Z,82.29
2018-03-03T10:15:14.690Z,81.88
2018-03-03T10:16:14.723Z,81.65
2018-03-03T10:17:14.674Z,82.24
2018-03-03T10:18:14.576Z,82.01
2018-03-03T10:19:14.581Z,81.54
2018-03-03T10:20:14.611Z,82.69
2018-03-03T10:21:14.594Z,81.82
2018-03-03T10:22:14.617Z,81.76
2018-03-03T10:23:14.598Z,82.22
2018-03-03T10:24:14.611Z,82.57
2018-03-03T10:25:14.763Z,82.01
2018-03-03T10:26:14.683Z,82.58
2018-03-03T10:27:14.847Z,82.95
2018-03-03T10:28:14.664Z,81.61
2018-03-03T10:29:14.626Z,82.54
2018-03-03T10:30:14.640Z,81.92
2018-03-03T10:31:14.658Z,81.66
2018-03-03T10:32:14.645Z,81.89
2018-03-03T10:33:14.630Z,81.68
2018-03-03T10:34:14.638Z,81.25
2018-03-03T10:35:14.718Z,81.49
2018-03-03T10:36:14.675Z,82.67
2018-03-03T10:38:14.713Z,81.66
2018-03-03T10:39:14.669Z,82.99
2018-03-03T10:40:14.661Z,82.03
2018-03-03T10:41:14.672Z,81.93
2018-03-03T10:42:14.684Z,82.1
2018-03-03T10:43:14.936Z,81.82
2018-03-03T10:44:21.655Z,81.51
2018-03-03T10:45:14.672Z,81.01
2018-03-03T10:47:20.932Z,81.19
2018-03-03T10:48:14.702Z,82.26
2018-03-03T10:49:14.689Z,81.13
2018-03-03T10:50:14.700Z,81.04
2018-03-03T10:51:14.701Z,81.33
2018-03-03T10:52:14.708Z,80.97
2018-03-03T10:53:14.705Z,81.52
2018-03-03T10:54:14.795Z,81.57
2018-03-03T10:55:14.722Z,82.6
2018-03-03T10:58:14.830Z,80.56
2018-03-03T10:59:14.720Z,79.75
2018-03-03T11:00:14.765Z,80.05
2018-03-03T11:01:14.733Z,80.16
2018-03-03T11:02:14.742Z,79.06
2018-03-03T11:03:14.739Z,79.56
2018-03-03T11:04:14.738Z,78.75
2018-03-03T11:05:14.774Z,78.29
2018-03-03T11:06:14.771Z,77.76
2018-03-03T11:07:14.751Z,78.23
2018-03-03T11:08:14.836Z,78.13
2018-03-03T11:09:14.772Z,78.78
2018-03-03T11:10:14.772Z,78.03
2018-03-03T11:11:17.082Z,77.76
2018-03-03T11:12:14.869Z,77.55
2018-03-03T11:13:14.795Z,77.15
2018-03-03T11:14:14.787Z,77.45
2018-03-03T11:15:14.810Z,76.79
2018-03-03T11:16:14.805Z,77.34
2018-03-03T11:17:14.801Z,78
2018-03-03T11:18:14.828Z,77.16
2018-03-03T11:19:14.815Z,77.11
2018-03-03T11:20:14.842Z,76.52
2018-03-03T11:21:14.817Z,77.27
2018-03-03T11:22:14.835Z,76.35
2018-03-03T11:23:14.832Z,76.94
2018-03-03T11:24:14.820Z,76.55
2018-03-03T11:25:14.825Z,77.23
2018-03-03T11:26:15.155Z,77.12
2018-03-03T11:28:27.148Z,77.28
2018-03-03T11:29:14.826Z,77.19
2018-03-03T11:30:14.822Z,75.58
2018-03-03T11:31:14.816Z,75.97
2018-03-03T11:32:14.841Z,76.26
2018-03-03T11:33:14.860Z,75.94
2018-03-03T11:34:14.842Z,74.91
2018-03-03T11:35:14.845Z,75.75
2018-03-03T11:36:14.864Z,75.39
2018-03-03T11:37:14.894Z,75.83
2018-03-03T11:38:14.850Z,74.45
2018-03-03T11:39:14.878Z,73.43
2018-03-03T11:40:14.877Z,74.54
2018-03-03T11:41:14.882Z,75.18
2018-03-03T11:42:14.857Z,74.94
2018-03-03T11:43:14.867Z,73.93
2018-03-03T11:44:14.856Z,73.97
2018-03-03T11:45:14.868Z,73.85
2018-03-03T11:46:15.107Z,73.58
2018-03-03T11:47:14.886Z,73
2018-03-03T11:48:14.863Z,73.19
2018-03-03T11:49:14.874Z,73.09
2018-03-03T11:50:14.896Z,73.77
2018-03-03T11:51:14.868Z,73.36
2018-03-03T11:52:14.884Z,73.79
2018-03-03T11:53:14.883Z,73.83
2018-03-03T11:54:14.887Z,73.53
2018-03-03T11:55:14.895Z,73.7
2018-03-03T11:56:14.910Z,73.24
2018-03-03T11:57:14.904Z,73.26
2018-03-03T11:58:15.056Z,73.25
2018-03-03T11:59:14.916Z,73.39
2018-03-03T12:00:14.910Z,73.18
2018-03-03T12:01:14.910Z,73.53
2018-03-03T12:02:14.924Z,73.64
2018-03-03T12:03:14.930Z,73.23
2018-03-03T12:04:14.949Z,73.33
2018-03-03T12:05:14.959Z,72.22
2018-03-03T12:06:14.943Z,72.09
2018-03-03T12:07:14.984Z,72.21
2018-03-03T12:08:14.959Z,71.95
2018-03-03T12:09:14.992Z,72.24
2018-03-03T12:10:14.983Z,73.07
2018-03-03T12:11:14.950Z,72.65
2018-03-03T12:12:14.962Z,72.54
2018-03-03T12:13:14.998Z,72.34
2018-03-03T12:14:15.002Z,72.64
2018-03-03T12:15:14.959Z,72.63
2018-03-03T12:16:14.969Z,73.06
2018-03-03T12:17:14.967Z,74.14
2018-03-03T12:18:14.963Z,73.74
2018-03-03T12:19:14.970Z,72.57
2018-03-03T12:20:14.970Z,72.48
2018-03-03T12:21:14.967Z,72.07
2018-03-03T12:22:15.106Z,71.4
2018-03-03T12:23:14.966Z,71.81
2018-03-03T12:24:14.972Z,73.17
2018-03-03T12:25:14.977Z,72.36
2018-03-03T12:26:14.989Z,72.23
2018-03-03T12:27:15.001Z,71.64
2018-03-03T12:28:14.997Z,71.76
2018-03-03T12:29:14.991Z,71.32
2018-03-03T12:30:14.997Z,70.07
2018-03-03T12:31:15.010Z,70
2018-03-03T12:32:15.009Z,70.98
2018-03-03T12:33:15.013Z,70.55
2018-03-03T12:34:15.024Z,70.33
2018-03-03T12:35:15.075Z,70.57
2018-03-03T12:36:15.040Z,70.78
2018-03-03T12:37:15.024Z,71.78
2018-03-03T12:38:15.053Z,71.22
2018-03-03T12:39:15.028Z,69.86
2018-03-03T12:40:40.550Z,70.4
2018-03-03T12:41:17.927Z,71.06
2018-03-03T12:42:15.059Z,69.7
2018-03-03T12:43:15.072Z,69.99
2018-03-03T12:44:15.087Z,70
2018-03-03T12:45:15.062Z,70.5
2018-03-03T12:46:15.070Z,70.13
2018-03-03T12:47:15.394Z,69.94
2018-03-03T12:48:15.080Z,70.28
2018-03-03T12:49:15.098Z,69.97
2018-03-03T12:50:15.116Z,69.38
2018-03-03T12:51:15.102Z,69.77
2018-03-03T12:52:15.171Z,69.93
2018-03-03T12:53:15.123Z,70.07
2018-03-03T12:54:15.104Z,69.33
2018-03-03T12:55:15.136Z,68.92
2018-03-03T12:56:15.131Z,68.95
2018-03-03T12:57:15.114Z,67.91
2018-03-03T12:58:15.128Z,67.67
2018-03-03T12:59:15.128Z,67.77
2018-03-03T13:00:15.437Z,66.92
2018-03-03T13:01:15.126Z,67.76
2018-03-03T13:02:15.169Z,67.55
2018-03-03T13:03:15.161Z,67.77
2018-03-03T13:04:15.128Z,67.15
2018-03-03T13:05:15.155Z,67.51
2018-03-03T13:06:15.126Z,67.4
2018-03-03T13:07:15.149Z,67.36
2018-03-03T13:08:15.173Z,67.14
2018-03-03T13:09:15.153Z,65.99
2018-03-03T13:10:15.151Z,65.54
2018-03-03T13:11:15.150Z,65.65
2018-03-03T13:12:15.201Z,65.62